createdAt,value
2023-03-22T00:00:40.128Z,13.30
2023-03-22T00:01:39.692Z,13.10
2023-03-22T00:02:39.705Z,13.50
2023-03-22T00:03:39.693Z,13.10
2023-03-22T00:04:39.637Z,13.90
2023-03-22T00:05:39.668Z,13.50
2023-03-22T00:06:39.632Z,14.40
2023-03-22T00:07:39.603Z,13.70
2023-03-22T00:08:39.593Z,13.90
2023-03-22T00:09:39.591Z,13.50
2023-03-22T00:10:39.996Z,13.10
2023-03-22T00:11:39.563Z,12.60
2023-03-22T00:12:39.557Z,14.30
2023-03-22T00:13:39.545Z,13.30
2023-03-22T00:14:39.538Z,13.60
2023-03-22T00:15:39.610Z,13.50
2023-03-22T00:16:39.501Z,13.90
2023-03-22T00:17:39.529Z,12.90
2023-03-22T00:18:39.488Z,13.10
2023-03-22T00:19:39.504Z,13.30
2023-03-22T00:20:39.737Z,13.40
2023-03-22T00:21:39.490Z,13.50
2023-03-22T00:22:39.463Z,13.20
2023-03-22T00:23:39.450Z,13.70
2023-03-22T00:24:39.427Z,13.40
2023-03-22T00:25:39.459Z,13.90
2023-03-22T00:26:39.438Z,13.10
2023-03-22T00:27:39.382Z,13.70
2023-03-22T00:28:39.371Z,13.40
2023-03-22T00:29:39.397Z,13.50
2023-03-22T00:30:39.699Z,13.70
2023-03-22T00:31:39.407Z,14.00
2023-03-22T00:32:39.356Z,13.70
2023-03-22T00:33:39.346Z,13.70
2023-03-22T00:34:39.330Z,13.40
2023-03-22T00:35:39.325Z,13.40
2023-03-22T00:36:39.277Z,13.90
2023-03-22T00:37:39.320Z,14.40
2023-03-22T00:38:46.333Z,13.90
2023-03-22T00:39:40.245Z,13.40
2023-03-22T00:40:39.648Z,13.70
2023-03-22T00:41:39.218Z,13.10
2023-03-22T00:42:39.229Z,13.50
2023-03-22T00:43:39.277Z,13.20
2023-03-22T00:44:39.182Z,14.10
2023-03-22T00:45:39.171Z,14.00
2023-03-22T00:46:39.253Z,13.80
2023-03-22T00:47:39.165Z,13.60
2023-03-22T00:48:39.190Z,13.90
2023-03-22T00:49:39.129Z,14.10
2023-03-22T00:50:39.279Z,14.40
2023-03-22T00:51:39.114Z,13.20
2023-03-22T00:52:39.093Z,13.30
2023-03-22T00:53:42.380Z,12.60
2023-03-22T00:54:39.091Z,13.90
2023-03-22T00:55:39.065Z,14.10
2023-03-22T00:56:39.045Z,13.10
2023-03-22T00:57:39.053Z,13.10
2023-03-22T00:58:39.052Z,14.10
2023-03-22T00:59:39.042Z,13.00
2023-03-22T01:00:39.235Z,13.30
2023-03-22T01:01:38.996Z,14.20
2023-03-22T01:02:38.981Z,13.10
2023-03-22T01:03:39.007Z,13.90
2023-03-22T01:04:39.005Z,12.80
2023-03-22T01:05:38.960Z,14.30
2023-03-22T01:06:38.974Z,13.30
2023-03-22T01:07:38.932Z,13.80
2023-03-22T01:08:39.305Z,14.00
2023-03-22T01:09:38.952Z,14.30
2023-03-22T01:10:39.097Z,13.50
2023-03-22T01:11:38.881Z,13.10
2023-03-22T01:12:38.882Z,13.30
2023-03-22T01:13:38.854Z,13.30
2023-03-22T01:14:38.865Z,13.70
2023-03-22T01:15:38.857Z,12.60
2023-03-22T01:16:38.888Z,13.70
2023-03-22T01:17:38.833Z,14.30
2023-03-22T01:18:38.797Z,13.50
2023-03-22T01:19:38.812Z,13.80
2023-03-22T01:20:39.228Z,13.50
2023-03-22T01:21:38.761Z,14.20
2023-03-22T01:22:38.757Z,14.30
2023-03-22T01:23:38.748Z,13.00
2023-03-22T01:24:38.731Z,14.40
2023-03-22T01:25:38.767Z,13.20
2023-03-22T01:26:38.708Z,14.20
2023-03-22T01:27:38.700Z,14.20
2023-03-22T01:28:38.713Z,14.00
2023-03-22T01:29:38.677Z,13.50
2023-03-22T01:30:39.010Z,12.90
2023-03-22T01:31:38.670Z,13.10
2023-03-22T01:32:38.658Z,13.40
2023-03-22T01:33:38.646Z,13.80
2023-03-22T01:34:38.616Z,12.90
2023-03-22T01:35:38.618Z,12.60
2023-03-22T01:36:38.597Z,12.70
2023-03-22T01:37:38.608Z,13.40
2023-03-22T01:38:38.573Z,13.60
2023-03-22T01:39:38.568Z,13.60
2023-03-22T01:40:38.971Z,13.70
2023-03-22T01:41:38.558Z,13.60
2023-03-22T01:42:38.546Z,13.30
2023-03-22T01:43:38.516Z,13.30
2023-03-22T01:44:38.509Z,13.20
2023-03-22T01:45:38.508Z,13.30
2023-03-22T01:46:38.541Z,13.10
2023-03-22T01:47:38.504Z,13.20
2023-03-22T01:48:38.624Z,13.60
2023-03-22T01:49:38.479Z,13.70
2023-03-22T01:50:38.865Z,12.90
2023-03-22T01:51:38.427Z,13.50
2023-03-22T01:52:38.418Z,13.60
2023-03-22T01:53:38.414Z,13.60
2023-03-22T01:54:38.402Z,14.20
2023-03-22T01:55:38.417Z,13.10
2023-03-22T01:56:38.379Z,12.70
2023-03-22T01:57:38.381Z,14.70
2023-03-22T01:58:38.378Z,13.50
2023-03-22T01:59:38.350Z,13.60
2023-03-22T02:00:38.648Z,13.60
2023-03-22T02:01:38.353Z,14.40
2023-03-22T02:02:38.351Z,13.70
2023-03-22T02:03:38.327Z,13.70
2023-03-22T02:04:38.375Z,13.10
2023-03-22T02:05:38.318Z,13.30
2023-03-22T02:06:38.382Z,13.90
2023-03-22T02:07:38.270Z,13.30
2023-03-22T02:08:38.230Z,13.20
2023-03-22T02:09:38.249Z,14.40
2023-03-22T02:10:38.509Z,13.30
2023-03-22T02:11:38.203Z,13.80
2023-03-22T02:12:38.199Z,14.30
2023-03-22T02:13:38.206Z,14.10
2023-03-22T02:14:38.175Z,13.80
2023-03-22T02:15:38.253Z,13.70
2023-03-22T02:16:38.158Z,13.80
2023-03-22T02:17:38.150Z,14.70
2023-03-22T02:18:38.143Z,14.00
2023-03-22T02:19:38.121Z,14.30
2023-03-22T02:20:38.444Z,14.80
2023-03-22T02:21:38.126Z,13.70
2023-03-22T02:22:38.075Z,15.00
2023-03-22T02:23:38.077Z,14.10
2023-03-22T02:24:38.066Z,15.20
2023-03-22T02:25:38.081Z,14.70
2023-03-22T02:26:38.068Z,14.30
2023-03-22T02:27:38.034Z,14.30
2023-03-22T02:28:38.018Z,15.00
2023-03-22T02:29:38.091Z,14.30
2023-03-22T02:30:38.447Z,14.20
2023-03-22T02:31:38.093Z,14.50
2023-03-22T02:32:37.965Z,14.30
2023-03-22T02:33:39.861Z,14.20
2023-03-22T02:34:37.945Z,14.70
2023-03-22T02:35:38.118Z,13.60
2023-03-22T02:36:37.955Z,14.10
2023-03-22T02:37:37.909Z,13.40
2023-03-22T02:38:37.920Z,14.90
2023-03-22T02:39:37.885Z,13.70
2023-03-22T02:40:38.283Z,14.40
2023-03-22T02:41:37.871Z,14.10
2023-03-22T02:42:37.862Z,14.20
2023-03-22T02:43:37.849Z,14.20
2023-03-22T02:44:37.861Z,13.70
2023-03-22T02:45:37.865Z,14.60
2023-03-22T02:46:37.893Z,14.00
2023-03-22T02:47:37.815Z,14.90
2023-03-22T02:48:37.817Z,14.40
2023-03-22T02:49:37.778Z,14.10
2023-03-22T02:50:38.238Z,14.20
2023-03-22T02:51:37.758Z,14.90
2023-03-22T02:52:37.749Z,15.10
2023-03-22T02:53:37.756Z,15.30
2023-03-22T02:54:37.724Z,14.70
2023-03-22T02:55:37.739Z,14.90
2023-03-22T02:56:37.700Z,14.50
2023-03-22T02:57:37.703Z,14.10
2023-03-22T02:58:37.682Z,14.40
2023-03-22T02:59:37.694Z,13.90
2023-03-22T03:00:38.170Z,14.60
2023-03-22T03:01:37.694Z,14.60
2023-03-22T03:02:37.635Z,13.90
2023-03-22T03:03:37.672Z,14.40
2023-03-22T03:04:37.630Z,14.70
2023-03-22T03:05:37.596Z,15.00
2023-03-22T03:06:37.587Z,15.10
2023-03-22T03:07:37.570Z,14.30
2023-03-22T03:08:37.558Z,14.50
2023-03-22T03:09:37.572Z,14.40
2023-03-22T03:10:37.995Z,14.20
2023-03-22T03:11:37.526Z,14.60
2023-03-22T03:12:37.540Z,14.80
2023-03-22T03:13:37.533Z,14.50
2023-03-22T03:14:37.498Z,14.10
2023-03-22T03:15:37.490Z,14.30
2023-03-22T03:16:37.532Z,14.40
2023-03-22T03:17:37.544Z,14.60
2023-03-22T03:18:37.456Z,14.70
2023-03-22T03:19:37.441Z,14.10
2023-03-22T03:20:37.708Z,14.10
2023-03-22T03:21:37.420Z,14.30
2023-03-22T03:22:37.412Z,14.60
2023-03-22T03:23:37.411Z,14.50
2023-03-22T03:24:37.413Z,14.40
2023-03-22T03:25:37.369Z,14.00
2023-03-22T03:26:37.364Z,14.10
2023-03-22T03:27:37.344Z,14.30
2023-03-22T03:28:37.352Z,14.30
2023-03-22T03:29:37.332Z,14.20
2023-03-22T03:30:37.522Z,14.10
2023-03-22T03:31:37.344Z,13.80
2023-03-22T03:32:37.295Z,13.80
2023-03-22T03:33:37.319Z,13.80
2023-03-22T03:34:37.294Z,14.00
2023-03-22T03:35:37.294Z,14.00
2023-03-22T03:36:37.243Z,14.40
2023-03-22T03:37:37.239Z,14.30
2023-03-22T03:38:37.232Z,14.30
2023-03-22T03:39:37.254Z,13.60
2023-03-22T03:40:37.431Z,14.30
2023-03-22T03:41:37.188Z,13.70
2023-03-22T03:42:37.179Z,14.40
2023-03-22T03:43:37.190Z,13.70
2023-03-22T03:44:37.183Z,13.70
2023-03-22T03:45:37.274Z,14.50
2023-03-22T03:46:37.154Z,13.70
2023-03-22T03:47:37.138Z,14.20
2023-03-22T03:48:37.123Z,13.50
2023-03-22T03:49:37.126Z,13.30
2023-03-22T03:50:37.343Z,13.80
2023-03-22T03:51:37.075Z,13.50
2023-03-22T03:52:37.082Z,13.90
2023-03-22T03:53:37.054Z,13.80
2023-03-22T03:54:37.039Z,13.40
2023-03-22T03:55:37.038Z,13.30
2023-03-22T03:56:37.039Z,13.50
2023-03-22T03:57:37.019Z,13.60
2023-03-22T03:58:36.996Z,14.10
2023-03-22T03:59:37.000Z,13.20
2023-03-22T04:00:37.119Z,12.70
2023-03-22T04:01:36.961Z,13.50
2023-03-22T04:02:37.034Z,13.30
2023-03-22T04:03:36.948Z,14.00
2023-03-22T04:04:37.020Z,13.30
2023-03-22T04:05:36.964Z,13.00
2023-03-22T04:06:36.914Z,13.90
2023-03-22T04:07:36.900Z,14.20
2023-03-22T04:08:36.895Z,13.50
2023-03-22T04:09:36.901Z,13.40
2023-03-22T04:10:37.055Z,13.70
2023-03-22T04:11:36.860Z,13.10
2023-03-22T04:12:36.842Z,13.30
2023-03-22T04:13:36.830Z,12.70
2023-03-22T04:14:36.839Z,13.90
2023-03-22T04:15:36.809Z,13.60
2023-03-22T04:16:36.861Z,13.60
2023-03-22T04:17:36.807Z,13.60
2023-03-22T04:18:36.797Z,14.50
2023-03-22T04:19:36.794Z,13.30
2023-03-22T04:20:36.988Z,13.50
2023-03-22T04:21:36.756Z,12.90
2023-03-22T04:22:36.731Z,13.00
2023-03-22T04:23:36.730Z,13.90
2023-03-22T04:24:36.724Z,13.90
2023-03-22T04:25:36.710Z,13.60
2023-03-22T04:26:36.682Z,14.20
2023-03-22T04:27:36.692Z,13.10
2023-03-22T04:28:36.685Z,13.20
2023-03-22T04:29:36.704Z,12.90
2023-03-22T04:30:36.764Z,13.50
2023-03-22T04:31:36.632Z,13.60
2023-03-22T04:32:36.616Z,13.00
2023-03-22T04:33:36.635Z,13.40
2023-03-22T04:34:36.593Z,12.70
2023-03-22T04:35:36.649Z,13.30
2023-03-22T04:36:36.643Z,13.10
2023-03-22T04:37:36.597Z,14.20
2023-03-22T04:38:36.544Z,12.60
2023-03-22T04:39:36.560Z,13.90
2023-03-22T04:40:36.614Z,13.40
2023-03-22T04:41:36.532Z,14.60
2023-03-22T04:42:36.565Z,13.90
2023-03-22T04:43:36.487Z,13.50
2023-03-22T04:44:36.469Z,14.30
2023-03-22T04:45:36.502Z,14.70
2023-03-22T04:46:36.625Z,14.10
2023-03-22T04:47:36.446Z,14.00
2023-03-22T04:48:36.435Z,13.70
2023-03-22T04:49:36.423Z,13.90
2023-03-22T04:50:36.435Z,14.00
2023-03-22T04:51:36.419Z,14.10
2023-03-22T04:52:36.390Z,13.80
2023-03-22T04:53:36.412Z,14.30
2023-03-22T04:54:36.363Z,14.40
2023-03-22T04:55:36.355Z,14.20
2023-03-22T04:56:36.362Z,14.80
2023-03-22T04:57:36.330Z,14.00
2023-03-22T04:58:36.356Z,14.80
2023-03-22T04:59:36.313Z,14.10
2023-03-22T05:00:36.294Z,14.50
2023-03-22T05:01:36.380Z,13.90
2023-03-22T05:02:36.332Z,14.00
2023-03-22T05:03:36.266Z,14.20
2023-03-22T05:04:36.275Z,14.30
2023-03-22T05:05:36.261Z,14.60
2023-03-22T05:06:36.303Z,14.30
2023-03-22T05:07:36.281Z,14.00
2023-03-22T05:08:36.339Z,14.70
2023-03-22T05:09:36.234Z,14.60
2023-03-22T05:10:36.187Z,14.10
2023-03-22T05:11:36.207Z,13.80
2023-03-22T05:12:36.157Z,14.30
2023-03-22T05:13:36.179Z,14.70
2023-03-22T05:14:36.237Z,14.90
2023-03-22T05:15:36.128Z,14.10
2023-03-22T05:16:36.118Z,14.70
2023-03-22T05:17:36.102Z,15.10
2023-03-22T05:18:36.117Z,14.70
2023-03-22T05:19:36.092Z,14.30
2023-03-22T05:20:36.074Z,14.80
2023-03-22T05:21:36.055Z,14.00
2023-03-22T05:22:36.045Z,15.00
2023-03-22T05:23:36.051Z,15.00
2023-03-22T05:24:36.061Z,14.40
2023-03-22T05:25:36.037Z,14.90
2023-03-22T05:26:36.023Z,14.30
2023-03-22T05:27:36.032Z,15.40
2023-03-22T05:28:35.982Z,13.90
2023-03-22T05:29:35.989Z,14.90
2023-03-22T05:30:35.981Z,14.30
2023-03-22T05:31:35.965Z,15.10
2023-03-22T05:32:35.933Z,14.00
2023-03-22T05:33:35.929Z,14.70
2023-03-22T05:34:36.195Z,15.50
2023-03-22T05:35:35.923Z,14.20
2023-03-22T05:36:35.916Z,14.00
2023-03-22T05:37:35.878Z,14.30
2023-03-22T05:38:35.868Z,15.00
2023-03-22T05:39:35.868Z,15.20
2023-03-22T05:40:35.862Z,14.20
2023-03-22T05:41:36.751Z,14.90
2023-03-22T05:42:35.823Z,15.10
2023-03-22T05:43:35.849Z,15.10
2023-03-22T05:44:35.812Z,15.50
2023-03-22T05:45:35.793Z,14.50
2023-03-22T05:46:35.828Z,14.80
2023-03-22T05:47:35.800Z,15.10
2023-03-22T05:48:35.749Z,15.30
2023-03-22T05:49:35.753Z,15.60
2023-03-22T05:50:35.727Z,14.80
2023-03-22T05:51:35.750Z,15.10
2023-03-22T05:52:35.730Z,15.40
2023-03-22T05:53:35.701Z,14.70
2023-03-22T05:54:35.694Z,15.30
2023-03-22T05:55:35.681Z,14.60
2023-03-22T05:56:35.680Z,14.40
2023-03-22T05:57:35.699Z,15.10
2023-03-22T05:58:35.643Z,15.40
2023-03-22T05:59:35.634Z,15.00
2023-03-22T06:00:35.626Z,15.50
2023-03-22T06:01:35.801Z,15.10
2023-03-22T06:02:35.604Z,14.80
2023-03-22T06:03:35.740Z,15.00
2023-03-22T06:04:35.581Z,15.10
2023-03-22T06:05:35.574Z,15.80
2023-03-22T06:06:35.606Z,15.60
2023-03-22T06:07:35.551Z,14.90
2023-03-22T06:08:35.535Z,15.10
2023-03-22T06:09:35.518Z,13.90
2023-03-22T06:10:35.504Z,14.40
2023-03-22T06:11:35.494Z,15.20
2023-03-22T06:12:35.512Z,14.90
2023-03-22T06:13:35.508Z,14.10
2023-03-22T06:14:35.468Z,13.70
2023-03-22T06:15:35.455Z,13.50
2023-03-22T06:16:35.463Z,14.70
2023-03-22T06:17:35.465Z,14.40
2023-03-22T06:18:35.446Z,15.30
2023-03-22T06:19:35.417Z,14.70
2023-03-22T06:20:35.419Z,14.30
2023-03-22T06:21:35.388Z,14.10
2023-03-22T06:22:35.392Z,14.70
2023-03-22T06:23:35.366Z,14.60
2023-03-22T06:24:35.351Z,14.70
2023-03-22T06:25:35.349Z,14.40
2023-03-22T06:26:35.352Z,14.80
2023-03-22T06:27:35.486Z,13.70
2023-03-22T06:28:35.309Z,14.20
2023-03-22T06:29:35.325Z,14.20
2023-03-22T06:30:35.305Z,15.20
2023-03-22T06:31:35.300Z,14.20
2023-03-22T06:32:35.264Z,14.00
2023-03-22T06:33:35.249Z,14.40
2023-03-22T06:34:35.242Z,14.20
2023-03-22T06:35:35.298Z,14.40
2023-03-22T06:36:35.236Z,13.90
2023-03-22T06:37:35.240Z,14.50
2023-03-22T06:38:35.192Z,14.80
2023-03-22T06:39:35.185Z,14.20
2023-03-22T06:40:35.167Z,15.20
2023-03-22T06:41:35.180Z,13.70
2023-03-22T06:42:35.149Z,14.30
2023-03-22T06:43:35.161Z,13.40
2023-03-22T06:44:35.120Z,14.20
2023-03-22T06:45:35.133Z,14.00
2023-03-22T06:46:35.093Z,14.70
2023-03-22T06:47:35.129Z,13.60
2023-03-22T06:48:35.080Z,14.10
2023-03-22T06:49:35.064Z,13.70
2023-03-22T06:50:35.097Z,13.50
2023-03-22T06:51:35.036Z,13.90
2023-03-22T06:52:35.032Z,13.80
2023-03-22T06:53:35.053Z,13.50
2023-03-22T06:54:35.015Z,13.50
2023-03-22T06:55:34.995Z,13.60
2023-03-22T06:56:34.985Z,13.40
2023-03-22T06:57:35.017Z,14.00
2023-03-22T06:58:34.957Z,14.40
2023-03-22T06:59:34.954Z,14.30
2023-03-22T07:00:34.934Z,13.70
2023-03-22T07:01:35.134Z,13.30
2023-03-22T07:02:34.928Z,13.60
2023-03-22T07:03:34.912Z,14.10
2023-03-22T07:04:35.010Z,14.40
2023-03-22T07:05:34.882Z,13.90
2023-03-22T07:06:34.888Z,13.60
2023-03-22T07:07:34.862Z,13.40
2023-03-22T07:08:34.881Z,14.10
2023-03-22T07:09:34.831Z,13.40
2023-03-22T07:10:34.840Z,14.20
2023-03-22T07:11:34.839Z,13.80
2023-03-22T07:12:34.803Z,14.10
2023-03-22T07:13:34.856Z,13.60
2023-03-22T07:14:34.815Z,13.80
2023-03-22T07:15:34.853Z,13.70
2023-03-22T07:16:34.763Z,13.80
2023-03-22T07:17:34.796Z,14.00
2023-03-22T07:18:34.768Z,13.40
2023-03-22T07:19:34.736Z,13.90
2023-03-22T07:20:34.709Z,12.70
2023-03-22T07:21:34.742Z,13.30
2023-03-22T07:22:34.693Z,12.90
2023-03-22T07:23:34.677Z,12.70
2023-03-22T07:24:36.058Z,12.70
2023-03-22T07:25:34.665Z,12.00
2023-03-22T07:26:34.700Z,12.30
2023-03-22T07:27:34.630Z,12.20
2023-03-22T07:28:34.618Z,12.30
2023-03-22T07:29:34.614Z,11.80
2023-03-22T07:30:34.604Z,11.90
2023-03-22T07:31:37.126Z,11.80
2023-03-22T07:32:34.609Z,11.40
2023-03-22T07:33:34.611Z,11.70
2023-03-22T07:34:34.548Z,11.30
2023-03-22T07:35:34.546Z,11.40
2023-03-22T07:36:34.536Z,11.10
2023-03-22T07:37:34.546Z,10.60
2023-03-22T07:38:34.542Z,11.40
2023-03-22T07:39:34.505Z,10.10
2023-03-22T07:40:34.500Z,10.40
2023-03-22T07:41:34.601Z,10.80
2023-03-22T07:42:34.492Z,10.30
2023-03-22T07:43:47.342Z,11.10
2023-03-22T07:44:35.465Z,10.60
2023-03-22T07:45:34.435Z,9.90
2023-03-22T07:46:34.495Z,10.00
2023-03-22T07:47:41.042Z,9.30
2023-03-22T07:48:35.434Z,8.70
2023-03-22T07:49:34.429Z,8.90
2023-03-22T07:50:34.437Z,8.30
2023-03-22T07:51:34.380Z,7.80
2023-03-22T07:52:34.358Z,8.00
2023-03-22T07:53:34.370Z,7.90
2023-03-22T07:54:34.707Z,7.50
2023-03-22T07:55:34.332Z,7.20
2023-03-22T07:56:34.349Z,7.10
2023-03-22T07:57:34.303Z,7.20
2023-03-22T07:58:34.290Z,6.90
2023-03-22T07:59:34.299Z,6.70
2023-03-22T08:00:34.265Z,7.00
2023-03-22T08:01:34.412Z,6.50
2023-03-22T08:02:34.263Z,7.10
2023-03-22T08:03:34.232Z,7.00
2023-03-22T08:04:34.238Z,6.60
2023-03-22T08:05:34.229Z,6.70
2023-03-22T08:06:34.204Z,7.20
2023-03-22T08:07:34.216Z,6.40
2023-03-22T08:08:34.176Z,5.90
2023-03-22T08:09:34.162Z,6.30
2023-03-22T08:10:34.162Z,5.90
2023-03-22T08:11:34.175Z,6.50
2023-03-22T08:12:34.138Z,6.20
2023-03-22T08:13:34.132Z,6.20
2023-03-22T08:14:37.077Z,6.00
2023-03-22T08:15:34.166Z,5.40
2023-03-22T08:16:34.178Z,5.90
2023-03-22T08:17:34.083Z,5.70
2023-03-22T08:18:34.075Z,5.80
2023-03-22T08:19:34.058Z,6.00
2023-03-22T08:20:34.071Z,5.50
2023-03-22T08:21:34.131Z,5.50
2023-03-22T08:22:34.015Z,5.30
2023-03-22T08:23:41.399Z,5.70
2023-03-22T08:24:34.989Z,5.50
2023-03-22T08:25:33.980Z,5.10
2023-03-22T08:26:33.990Z,5.20
2023-03-22T08:27:33.966Z,5.60
2023-03-22T08:28:33.948Z,5.60
2023-03-22T08:29:33.954Z,5.90
2023-03-22T08:30:33.926Z,5.20
2023-03-22T08:31:33.968Z,5.10
2023-03-22T08:32:33.927Z,5.20
2023-03-22T08:33:33.895Z,5.70
2023-03-22T08:34:33.879Z,4.70
2023-03-22T08:35:33.902Z,5.30
2023-03-22T08:36:33.885Z,4.80
2023-03-22T08:37:33.863Z,4.90
2023-03-22T08:38:33.838Z,5.40
2023-03-22T08:39:33.850Z,5.00
2023-03-22T08:40:33.830Z,4.60
2023-03-22T08:41:33.826Z,5.10
2023-03-22T08:42:33.794Z,5.00
2023-03-22T08:43:33.776Z,5.10
2023-03-22T08:44:33.785Z,5.60
2023-03-22T08:45:33.755Z,5.50
2023-03-22T08:46:33.842Z,5.20
2023-03-22T08:47:33.738Z,4.90
2023-03-22T08:48:33.721Z,4.90
2023-03-22T08:49:33.703Z,5.20
2023-03-22T08:50:33.696Z,5.00
2023-03-22T08:51:33.689Z,5.50
2023-03-22T08:52:33.700Z,5.20
2023-03-22T08:53:33.685Z,5.50
2023-03-22T08:54:33.764Z,5.40
2023-03-22T08:55:33.670Z,5.20
2023-03-22T08:56:33.630Z,5.40
2023-03-22T08:57:33.618Z,5.30
2023-03-22T08:58:33.617Z,5.60
2023-03-22T08:59:33.611Z,6.30
2023-03-22T09:00:45.939Z,6.00
2023-03-22T09:01:34.658Z,5.40
2023-03-22T09:02:33.590Z,5.30
2023-03-22T09:03:33.566Z,5.60
2023-03-22T09:04:33.617Z,5.90
2023-03-22T09:05:33.524Z,5.90
2023-03-22T09:06:33.547Z,5.50
2023-03-22T09:07:33.515Z,5.30
2023-03-22T09:08:33.497Z,5.90
2023-03-22T09:09:33.523Z,5.80
2023-03-22T09:10:33.504Z,5.60
2023-03-22T09:11:33.511Z,5.30
2023-03-22T09:12:33.445Z,5.60
2023-03-22T09:13:33.465Z,5.90
2023-03-22T09:14:33.446Z,5.60
2023-03-22T09:15:33.451Z,5.60
2023-03-22T09:16:33.451Z,6.10
2023-03-22T09:17:33.398Z,5.70
2023-03-22T09:18:33.377Z,5.70
2023-03-22T09:19:34.423Z,5.90
2023-03-22T09:20:33.375Z,5.60
2023-03-22T09:21:33.359Z,5.40
2023-03-22T09:22:33.366Z,5.10
2023-03-22T09:23:33.331Z,4.80
2023-03-22T09:24:33.324Z,4.70
2023-03-22T09:25:33.346Z,4.70
2023-03-22T09:26:33.314Z,4.90
2023-03-22T09:27:33.283Z,4.60
2023-03-22T09:28:33.348Z,4.40
2023-03-22T09:29:33.285Z,4.50
2023-03-22T09:30:33.248Z,4.70
2023-03-22T09:31:33.282Z,4.30
2023-03-22T09:32:33.217Z,4.80
2023-03-22T09:33:33.224Z,4.30
2023-03-22T09:34:33.202Z,4.30
2023-03-22T09:35:33.220Z,4.10
2023-03-22T09:36:33.177Z,4.00
2023-03-22T09:37:33.156Z,4.30
2023-03-22T09:38:33.191Z,4.10
2023-03-22T09:39:33.144Z,4.10
2023-03-22T09:40:33.137Z,4.00
2023-03-22T09:41:33.136Z,3.90
2023-03-22T09:42:33.114Z,4.10
2023-03-22T09:43:33.273Z,4.20
2023-03-22T09:44:33.121Z,3.70
2023-03-22T09:45:33.078Z,3.60
2023-03-22T09:46:33.100Z,4.30
2023-03-22T09:47:43.952Z,3.40
2023-03-22T09:48:34.057Z,3.50
2023-03-22T09:49:43.599Z,3.50
2023-03-22T09:50:34.021Z,3.80
2023-03-22T09:51:33.012Z,3.50
2023-03-22T09:52:33.074Z,3.10
2023-03-22T09:53:32.976Z,3.10
2023-03-22T09:54:33.001Z,3.00
2023-03-22T09:55:32.964Z,3.30
2023-03-22T09:56:32.955Z,2.90
2023-03-22T09:57:33.000Z,2.70
2023-03-22T09:58:32.982Z,2.80
2023-03-22T09:59:32.928Z,3.00
2023-03-22T10:00:33.092Z,3.00
2023-03-22T10:01:33.055Z,2.70
2023-03-22T10:02:33.033Z,3.00
2023-03-22T10:03:32.869Z,3.10
2023-03-22T10:04:32.962Z,3.00
2023-03-22T10:05:32.837Z,2.90
2023-03-22T10:06:32.830Z,2.80
2023-03-22T10:07:32.846Z,3.00
2023-03-22T10:08:32.836Z,3.70
2023-03-22T10:09:32.819Z,3.20
2023-03-22T10:10:32.798Z,3.00
2023-03-22T10:11:32.771Z,3.10
2023-03-22T10:12:32.803Z,2.90
2023-03-22T10:13:32.903Z,3.00
2023-03-22T10:14:32.742Z,2.60
2023-03-22T10:15:32.732Z,3.10
2023-03-22T10:16:32.806Z,3.30
2023-03-22T10:17:32.707Z,3.20
2023-03-22T10:18:32.714Z,2.90
2023-03-22T10:19:32.710Z,2.70
2023-03-22T10:20:32.694Z,3.20
2023-03-22T10:21:32.663Z,2.90
2023-03-22T10:22:32.668Z,2.90
2023-03-22T10:23:32.640Z,3.10
2023-03-22T10:24:32.624Z,3.10
2023-03-22T10:25:32.642Z,2.80
2023-03-22T10:26:32.630Z,3.10
2023-03-22T10:27:32.659Z,3.00
2023-03-22T10:28:32.645Z,2.60
2023-03-22T10:29:32.592Z,3.00
2023-03-22T10:30:32.601Z,3.20
2023-03-22T10:31:32.647Z,2.60
2023-03-22T10:32:32.542Z,2.80
2023-03-22T10:33:32.638Z,3.10
2023-03-22T10:34:32.547Z,3.10
2023-03-22T10:35:32.563Z,3.10
2023-03-22T10:36:32.502Z,3.10
2023-03-22T10:37:32.472Z,2.90
2023-03-22T10:38:32.485Z,3.30
2023-03-22T10:39:32.480Z,2.70
2023-03-22T10:40:32.452Z,3.40
2023-03-22T10:41:32.494Z,3.20
2023-03-22T10:42:32.420Z,3.20
2023-03-22T10:43:32.513Z,2.90
2023-03-22T10:44:32.426Z,3.00
2023-03-22T10:45:32.421Z,3.00
2023-03-22T10:46:32.406Z,3.40
2023-03-22T10:47:32.379Z,3.20
2023-03-22T10:48:32.438Z,3.30
2023-03-22T10:49:32.352Z,3.50
2023-03-22T10:50:32.332Z,3.60
2023-03-22T10:51:32.322Z,3.60
2023-03-22T10:52:32.312Z,3.20
2023-03-22T10:53:32.409Z,3.10
2023-03-22T10:54:32.287Z,3.30
2023-03-22T10:55:32.301Z,3.60
2023-03-22T10:56:32.264Z,3.30
2023-03-22T10:57:32.252Z,3.20
2023-03-22T10:58:32.260Z,3.20
2023-03-22T10:59:32.240Z,3.20
2023-03-22T11:00:32.327Z,3.50
2023-03-22T11:01:32.520Z,3.40
2023-03-22T11:02:32.412Z,3.40
2023-03-22T11:03:32.279Z,3.20
2023-03-22T11:04:32.182Z,3.40
2023-03-22T11:05:32.160Z,3.50
2023-03-22T11:06:32.161Z,3.70
2023-03-22T11:07:32.170Z,3.20
2023-03-22T11:08:32.132Z,3.10
2023-03-22T11:09:32.132Z,3.30
2023-03-22T11:10:32.248Z,3.20
2023-03-22T11:11:32.099Z,3.10
2023-03-22T11:12:32.113Z,2.90
2023-03-22T11:13:32.074Z,2.90
2023-03-22T11:14:32.145Z,2.90
2023-03-22T11:15:32.071Z,3.00
2023-03-22T11:16:32.133Z,3.00
2023-03-22T11:17:32.048Z,3.10
2023-03-22T11:18:32.017Z,3.00
2023-03-22T11:19:32.002Z,3.10
2023-03-22T11:20:32.061Z,3.50
2023-03-22T11:21:31.988Z,2.90
2023-03-22T11:22:31.977Z,3.20
2023-03-22T11:23:31.959Z,3.10
2023-03-22T11:24:31.988Z,3.30
2023-03-22T11:25:31.957Z,3.30
2023-03-22T11:26:31.951Z,3.00
2023-03-22T11:27:31.909Z,2.90
2023-03-22T11:28:31.919Z,3.20
2023-03-22T11:29:31.920Z,3.10
2023-03-22T11:30:31.885Z,3.20
2023-03-22T11:31:31.919Z,3.60
2023-03-22T11:32:31.876Z,3.10
2023-03-22T11:33:31.859Z,3.70
2023-03-22T11:34:31.867Z,3.30
2023-03-22T11:35:31.896Z,3.30
2023-03-22T11:36:31.861Z,3.30
2023-03-22T11:37:31.828Z,3.10
2023-03-22T11:38:31.793Z,3.50
2023-03-22T11:39:31.779Z,3.00
2023-03-22T11:40:31.789Z,3.30
2023-03-22T11:41:31.789Z,3.00
2023-03-22T11:42:31.745Z,3.20
2023-03-22T11:43:31.730Z,3.10
2023-03-22T11:44:31.732Z,2.90
2023-03-22T11:45:31.722Z,3.00
2023-03-22T11:46:31.773Z,2.90
2023-03-22T11:47:31.765Z,2.80
2023-03-22T11:48:31.904Z,3.10
2023-03-22T11:49:31.722Z,2.90
2023-03-22T11:50:31.686Z,3.30
2023-03-22T11:51:31.655Z,2.80
2023-03-22T11:52:31.647Z,3.10
2023-03-22T11:53:31.616Z,3.00
2023-03-22T11:54:31.609Z,2.80
2023-03-22T11:55:31.625Z,2.80
2023-03-22T11:56:31.624Z,3.00
2023-03-22T11:57:31.606Z,2.50
2023-03-22T11:58:31.573Z,2.70
2023-03-22T11:59:31.598Z,2.70
2023-03-22T12:00:31.543Z,2.70
2023-03-22T12:01:31.524Z,2.90
2023-03-22T12:02:31.695Z,2.60
2023-03-22T12:03:31.763Z,2.70
2023-03-22T12:04:31.565Z,3.00
2023-03-22T12:05:31.531Z,2.80
2023-03-22T12:06:31.523Z,3.10
2023-03-22T12:07:31.456Z,2.80
2023-03-22T12:08:31.450Z,2.90
2023-03-22T12:09:31.449Z,2.90
2023-03-22T12:10:31.452Z,2.80
2023-03-22T12:11:31.425Z,3.20
2023-03-22T12:12:31.495Z,3.00
2023-03-22T12:13:31.388Z,2.90
2023-03-22T12:14:31.373Z,2.70
2023-03-22T12:15:31.364Z,2.90
2023-03-22T12:16:31.407Z,2.80
2023-03-22T12:17:31.439Z,2.90
2023-03-22T12:18:31.331Z,2.70
2023-03-22T12:19:31.327Z,2.90
2023-03-22T12:20:31.309Z,3.00
2023-03-22T12:21:31.337Z,3.20
2023-03-22T12:22:31.288Z,2.80
2023-03-22T12:23:31.305Z,2.70
2023-03-22T12:24:31.268Z,2.70
2023-03-22T12:25:31.278Z,2.90
2023-03-22T12:26:31.279Z,2.80
2023-03-22T12:27:31.234Z,2.80
2023-03-22T12:28:31.240Z,3.10
2023-03-22T12:29:31.243Z,3.00
2023-03-22T12:30:31.231Z,3.20
2023-03-22T12:31:31.268Z,2.80
2023-03-22T12:32:31.225Z,2.80
2023-03-22T12:33:31.231Z,3.00
2023-03-22T12:34:31.171Z,2.90
2023-03-22T12:35:31.160Z,3.30
2023-03-22T12:36:31.217Z,3.20
2023-03-22T12:37:31.534Z,2.90
2023-03-22T12:38:31.116Z,3.00
2023-03-22T12:39:31.110Z,2.60
2023-03-22T12:40:31.086Z,2.80
2023-03-22T12:41:31.084Z,2.80
2023-03-22T12:42:34.714Z,2.50
2023-03-22T12:43:31.051Z,3.00
2023-03-22T12:44:31.037Z,2.50
2023-03-22T12:45:31.063Z,3.00
2023-03-22T12:46:31.047Z,3.00
2023-03-22T12:47:31.054Z,3.00
2023-03-22T12:48:31.072Z,2.60
2023-03-22T12:49:30.981Z,2.60
2023-03-22T12:50:31.009Z,3.50
2023-03-22T12:51:30.971Z,3.00
2023-03-22T12:52:37.700Z,3.00
2023-03-22T12:53:31.954Z,2.90
2023-03-22T12:54:30.961Z,3.00
2023-03-22T12:55:30.939Z,3.00
2023-03-22T12:56:30.904Z,2.80
2023-03-22T12:57:30.893Z,2.70
2023-03-22T12:58:30.887Z,2.80
2023-03-22T12:59:30.881Z,2.90
2023-03-22T13:00:30.933Z,2.90
2023-03-22T13:01:30.967Z,2.80
2023-03-22T13:02:31.071Z,2.70